FIN2PC EFHK-EFIV
Flight info
| Callsign | FIN2PC |
|---|---|
| Flight time | N/A |
| Altitude | 34000 |
| Route | TEVRU4P TEVRU Y75 USUPO DCT RENVI/N0463F350 DCT SOTIT SOTIT4B |
| Aircraft | A321/M-SDE3FGHIRWY/LB1 |
Departure
| Time | 2026-04-23 10:06 |
|---|---|
| Airport | Helsinki Vantaa Airport (EFHK) |
Arrival
| Time | N/A |
|---|---|
| Airport | Ivalo Airport (EFIV) |
| Time | Latitude | Longitude | Altitude | Speed | Heading |
|---|---|---|---|---|---|
| 2026-04-23 10:00 | 60.33033 | 24.95439 | 202 ft | 0 kts | 317° |
| 2026-04-23 10:03 | 60.33041 | 24.95424 | 203 ft | 4 kts | 318° |
| 2026-04-23 10:03 | 60.33070 | 24.95367 | 204 ft | 6 kts | 316° |
| 2026-04-23 10:03 | 60.33093 | 24.95287 | 205 ft | 7 kts | 302° |
| 2026-04-23 10:04 | 60.33110 | 24.95188 | 207 ft | 8 kts | 278° |
| 2026-04-23 10:04 | 60.33112 | 24.95046 | 207 ft | 11 kts | 274° |
| 2026-04-23 10:04 | 60.33122 | 24.94857 | 204 ft | 15 kts | 270° |
| 2026-04-23 10:04 | 60.33085 | 24.94651 | 203 ft | 16 kts | 260° |
| 2026-04-23 10:05 | 60.33105 | 24.94451 | 203 ft | 14 kts | 260° |
| 2026-04-23 10:05 | 60.33064 | 24.94288 | 204 ft | 14 kts | 233° |
| 2026-04-23 10:05 | 60.32826 | 24.93747 | 201 ft | 93 kts | 231° |
| 2026-04-23 10:05 | 60.32212 | 24.92419 | 186 ft | 162 kts | 231° |
| 2026-04-23 10:06 | 60.31396 | 24.90749 | 792 ft | 167 kts | 233° |
| 2026-04-23 10:06 | 60.30892 | 24.88812 | 1273 ft | 153 kts | 274° |
| 2026-04-23 10:06 | 60.31200 | 24.86948 | 1666 ft | 141 kts | 322° |
| 2026-04-23 10:06 | 60.32080 | 24.86411 | 2057 ft | 142 kts | 12° |
| 2026-04-23 10:07 | 60.33048 | 24.87236 | 2351 ft | 161 kts | 18° |
| 2026-04-23 10:07 | 60.34192 | 24.87540 | 2697 ft | 177 kts | 354° |
| 2026-04-23 10:07 | 60.35462 | 24.87079 | 3129 ft | 194 kts | 350° |
| 2026-04-23 10:07 | 60.36848 | 24.86594 | 3579 ft | 211 kts | 353° |
| 2026-04-23 10:08 | 60.38345 | 24.86218 | 4034 ft | 228 kts | 355° |
| 2026-04-23 10:08 | 60.39965 | 24.85925 | 4674 ft | 237 kts | 356° |
| 2026-04-23 10:08 | 60.41582 | 24.85699 | 5499 ft | 238 kts | 357° |
| 2026-04-23 10:09 | 60.44881 | 24.85341 | 7160 ft | 239 kts | 358° |
| 2026-04-23 10:09 | 60.46513 | 24.85195 | 7946 ft | 240 kts | 359° |
| 2026-04-23 10:09 | 60.48165 | 24.85055 | 8719 ft | 241 kts | 359° |
| 2026-04-23 10:09 | 60.49833 | 24.84919 | 9451 ft | 242 kts | 359° |
| 2026-04-23 10:10 | 60.51513 | 24.84787 | 10169 ft | 243 kts | 359° |
| 2026-04-23 10:10 | 60.53213 | 24.84657 | 10617 ft | 254 kts | 359° |
| 2026-04-23 10:10 | 60.55036 | 24.84518 | 10906 ft | 270 kts | 359° |
| 2026-04-23 10:10 | 60.56963 | 24.84373 | 11186 ft | 285 kts | 358° |
| 2026-04-23 10:11 | 60.58971 | 24.84220 | 11454 ft | 299 kts | 359° |
| 2026-04-23 10:11 | 60.61064 | 24.84061 | 11878 ft | 307 kts | 358° |
| 2026-04-23 10:11 | 60.63202 | 24.83898 | 12534 ft | 308 kts | 358° |
| 2026-04-23 10:11 | 60.65335 | 24.83735 | 13215 ft | 308 kts | 358° |
| 2026-04-23 10:12 | 60.67474 | 24.83573 | 13843 ft | 309 kts | 358° |
| 2026-04-23 10:12 | 60.69591 | 24.83405 | 14409 ft | 311 kts | 357° |
| 2026-04-23 10:12 | 60.71766 | 24.83239 | 14965 ft | 313 kts | 357° |
| 2026-04-23 10:12 | 60.73910 | 24.83070 | 15492 ft | 315 kts | 358° |
| 2026-04-23 10:13 | 60.76106 | 24.82900 | 15980 ft | 318 kts | 358° |
| 2026-04-23 10:13 | 60.78323 | 24.82729 | 16471 ft | 320 kts | 358° |
| 2026-04-23 10:13 | 60.80540 | 24.82629 | 16971 ft | 322 kts | 360° |
| 2026-04-23 10:13 | 60.82777 | 24.82780 | 17459 ft | 324 kts | 2° |
| 2026-04-23 10:14 | 60.84991 | 24.83171 | 17924 ft | 326 kts | 4° |
| 2026-04-23 10:14 | 60.87245 | 24.83674 | 18385 ft | 327 kts | 5° |
| 2026-04-23 10:14 | 60.89501 | 24.84202 | 18821 ft | 330 kts | 5° |
| 2026-04-23 10:14 | 60.91774 | 24.84737 | 19250 ft | 331 kts | 5° |
| 2026-04-23 10:15 | 60.94054 | 24.85274 | 19706 ft | 332 kts | 5° |
| 2026-04-23 10:15 | 60.96347 | 24.85820 | 20124 ft | 334 kts | 5° |
| 2026-04-23 10:15 | 60.98654 | 24.86366 | 20520 ft | 336 kts | 4° |
| 2026-04-23 10:15 | 61.00982 | 24.86916 | 20910 ft | 338 kts | 5° |
| 2026-04-23 10:16 | 61.03324 | 24.87475 | 21208 ft | 342 kts | 5° |
| 2026-04-23 10:16 | 61.05669 | 24.88032 | 21457 ft | 346 kts | 5° |
| 2026-04-23 10:16 | 61.08060 | 24.88603 | 21805 ft | 348 kts | 5° |
| 2026-04-23 10:16 | 61.10470 | 24.89181 | 22180 ft | 349 kts | 5° |
| 2026-04-23 10:17 | 61.12875 | 24.89755 | 22552 ft | 350 kts | 4° |
| 2026-04-23 10:17 | 61.15284 | 24.90333 | 22890 ft | 352 kts | 5° |
| 2026-04-23 10:17 | 61.17729 | 24.90922 | 23233 ft | 354 kts | 5° |
| 2026-04-23 10:17 | 61.20172 | 24.91509 | 23556 ft | 356 kts | 5° |
| 2026-04-23 10:18 | 61.22607 | 24.92099 | 23878 ft | 358 kts | 4° |
| 2026-04-23 10:18 | 61.25096 | 24.92700 | 24200 ft | 359 kts | 4° |
| 2026-04-23 10:18 | 61.27577 | 24.93302 | 24542 ft | 360 kts | 4° |
| 2026-04-23 10:18 | 61.30035 | 24.93893 | 24854 ft | 361 kts | 4° |
| 2026-04-23 10:19 | 61.32524 | 24.94502 | 25177 ft | 362 kts | 4° |
| 2026-04-23 10:19 | 61.35028 | 24.95106 | 25461 ft | 364 kts | 4° |
| 2026-04-23 10:19 | 61.37536 | 24.95717 | 25756 ft | 365 kts | 4° |
| 2026-04-23 10:19 | 61.40053 | 24.96331 | 26041 ft | 367 kts | 4° |
| 2026-04-23 10:20 | 61.42594 | 24.96952 | 26300 ft | 368 kts | 4° |
| 2026-04-23 10:20 | 61.45134 | 24.97572 | 26559 ft | 370 kts | 4° |
| 2026-04-23 10:20 | 61.47663 | 24.98194 | 26833 ft | 371 kts | 4° |
| 2026-04-23 10:20 | 61.50205 | 24.98816 | 27195 ft | 369 kts | 4° |
| 2026-04-23 10:21 | 61.52746 | 24.99437 | 27580 ft | 367 kts | 4° |
| 2026-04-23 10:21 | 61.55267 | 25.00059 | 27967 ft | 365 kts | 4° |
| 2026-04-23 10:21 | 61.57776 | 25.00678 | 28322 ft | 364 kts | 4° |
| 2026-04-23 10:21 | 61.60281 | 25.01270 | 28696 ft | 362 kts | 3° |
| 2026-04-23 10:22 | 61.62756 | 25.01660 | 28954 ft | 363 kts | 1° |
| 2026-04-23 10:22 | 61.65283 | 25.01934 | 29103 ft | 366 kts | 1° |
| 2026-04-23 10:22 | 61.67817 | 25.02187 | 29351 ft | 367 kts | 0° |
| 2026-04-23 10:22 | 61.70346 | 25.02435 | 29717 ft | 365 kts | 1° |
| 2026-04-23 10:23 | 61.72875 | 25.02687 | 30093 ft | 363 kts | 1° |
| 2026-04-23 10:23 | 61.75384 | 25.02938 | 30433 ft | 361 kts | 1° |
| 2026-04-23 10:23 | 61.77877 | 25.03191 | 30753 ft | 360 kts | 0° |
| 2026-04-23 10:23 | 61.80344 | 25.03437 | 31020 ft | 359 kts | 0° |
| 2026-04-23 10:24 | 61.82838 | 25.03684 | 31271 ft | 359 kts | 0° |
| 2026-04-23 10:24 | 61.85312 | 25.03933 | 31537 ft | 358 kts | 0° |
| 2026-04-23 10:24 | 61.87793 | 25.04181 | 31809 ft | 357 kts | 0° |
| 2026-04-23 10:24 | 61.90258 | 25.04427 | 32063 ft | 357 kts | 0° |
| 2026-04-23 10:25 | 61.92739 | 25.04673 | 32277 ft | 357 kts | 0° |
| 2026-04-23 10:25 | 61.95197 | 25.04921 | 32461 ft | 358 kts | 0° |
| 2026-04-23 10:25 | 61.97688 | 25.05170 | 32644 ft | 359 kts | 0° |
| 2026-04-23 10:25 | 62.00167 | 25.05420 | 32835 ft | 360 kts | 0° |
| 2026-04-23 10:26 | 62.02673 | 25.05678 | 33018 ft | 361 kts | 0° |
| 2026-04-23 10:26 | 62.05185 | 25.05933 | 33192 ft | 361 kts | 0° |
| 2026-04-23 10:26 | 62.07663 | 25.06191 | 33336 ft | 363 kts | 0° |
| 2026-04-23 10:26 | 62.10190 | 25.06448 | 33475 ft | 364 kts | 0° |
| 2026-04-23 10:27 | 62.12728 | 25.06706 | 33665 ft | 365 kts | 0° |
| 2026-04-23 10:27 | 62.15256 | 25.06962 | 33866 ft | 365 kts | 0° |
| 2026-04-23 10:27 | 62.20305 | 25.07475 | 33913 ft | 366 kts | 0° |
| 2026-04-23 10:28 | 62.25365 | 25.07999 | 33917 ft | 366 kts | 0° |
| 2026-04-23 10:28 | 62.30446 | 25.08526 | 33916 ft | 367 kts | 0° |
| 2026-04-23 10:29 | 62.35524 | 25.09048 | 33919 ft | 367 kts | 0° |
| 2026-04-23 10:29 | 62.40588 | 25.09576 | 33918 ft | 367 kts | 0° |
| 2026-04-23 10:30 | 62.45670 | 25.10106 | 33916 ft | 367 kts | 0° |
| 2026-04-23 10:30 | 62.50740 | 25.10632 | 33913 ft | 367 kts | 0° |
| 2026-04-23 10:31 | 62.55837 | 25.11172 | 33916 ft | 367 kts | 0° |
| 2026-04-23 10:31 | 62.60901 | 25.11698 | 33901 ft | 368 kts | 0° |
| 2026-04-23 10:32 | 62.66019 | 25.12240 | 33896 ft | 368 kts | 0° |
| 2026-04-23 10:32 | 62.71108 | 25.12783 | 33895 ft | 368 kts | 0° |
| 2026-04-23 10:33 | 62.76205 | 25.13324 | 33896 ft | 369 kts | 0° |
| 2026-04-23 10:33 | 62.81300 | 25.13866 | 33898 ft | 369 kts | 0° |
| 2026-04-23 10:34 | 62.86399 | 25.14411 | 33898 ft | 369 kts | 0° |
| 2026-04-23 10:34 | 62.91499 | 25.14961 | 33901 ft | 369 kts | 0° |
| 2026-04-23 10:35 | 62.96609 | 25.15512 | 33902 ft | 369 kts | 0° |
| 2026-04-23 10:35 | 63.01709 | 25.16064 | 33902 ft | 370 kts | 0° |
| 2026-04-23 10:36 | 63.06815 | 25.16620 | 33904 ft | 369 kts | 0° |
| 2026-04-23 10:36 | 63.11930 | 25.17173 | 33907 ft | 369 kts | 0° |
| 2026-04-23 10:37 | 63.17054 | 25.17734 | 33904 ft | 369 kts | 0° |
| 2026-04-23 10:37 | 63.22162 | 25.18295 | 33903 ft | 370 kts | 0° |
| 2026-04-23 10:38 | 63.27257 | 25.18853 | 33900 ft | 370 kts | 0° |
| 2026-04-23 10:38 | 63.32381 | 25.19423 | 33902 ft | 370 kts | 0° |
| 2026-04-23 10:39 | 63.37498 | 25.19988 | 33902 ft | 369 kts | 0° |
| 2026-04-23 10:39 | 63.42582 | 25.20560 | 33901 ft | 370 kts | 360° |
| 2026-04-23 10:40 | 63.47725 | 25.21135 | 33902 ft | 370 kts | 360° |
| 2026-04-23 10:40 | 63.52828 | 25.21702 | 33901 ft | 369 kts | 0° |
| 2026-04-23 10:41 | 63.57925 | 25.22277 | 33901 ft | 369 kts | 0° |
| 2026-04-23 10:41 | 63.63060 | 25.22856 | 33902 ft | 370 kts | 360° |
| 2026-04-23 10:42 | 63.68162 | 25.23434 | 33903 ft | 370 kts | 360° |
| 2026-04-23 10:42 | 63.73287 | 25.24017 | 33904 ft | 370 kts | 0° |
| 2026-04-23 10:43 | 63.78386 | 25.24599 | 33907 ft | 370 kts | 0° |
| 2026-04-23 10:43 | 63.83512 | 25.25185 | 33910 ft | 370 kts | 360° |
| 2026-04-23 10:44 | 63.88640 | 25.25781 | 33918 ft | 370 kts | 359° |
| 2026-04-23 10:44 | 63.93737 | 25.26365 | 33916 ft | 370 kts | 360° |
| 2026-04-23 10:45 | 63.98866 | 25.26957 | 33914 ft | 369 kts | 360° |
| 2026-04-23 10:45 | 64.03986 | 25.27550 | 33913 ft | 370 kts | 0° |
| 2026-04-23 10:46 | 64.09096 | 25.28148 | 33911 ft | 370 kts | 360° |
| 2026-04-23 10:46 | 64.14233 | 25.28753 | 33911 ft | 370 kts | 360° |
| 2026-04-23 10:47 | 64.19332 | 25.29354 | 33910 ft | 371 kts | 359° |
| 2026-04-23 10:47 | 64.24445 | 25.29953 | 33908 ft | 370 kts | 360° |
| 2026-04-23 10:48 | 64.29589 | 25.30561 | 33908 ft | 370 kts | 360° |
| 2026-04-23 10:48 | 64.34711 | 25.31169 | 33911 ft | 371 kts | 359° |
| 2026-04-23 10:49 | 64.39826 | 25.31777 | 33906 ft | 371 kts | 360° |
| 2026-04-23 10:49 | 64.44972 | 25.32389 | 33908 ft | 372 kts | 359° |
| 2026-04-23 10:50 | 64.50113 | 25.33000 | 33908 ft | 372 kts | 359° |
| 2026-04-23 10:50 | 64.55257 | 25.33617 | 33912 ft | 371 kts | 359° |
| 2026-04-23 10:51 | 64.60386 | 25.34241 | 33913 ft | 371 kts | 359° |
| 2026-04-23 10:51 | 64.65530 | 25.34864 | 33914 ft | 372 kts | 359° |
| 2026-04-23 10:52 | 64.70647 | 25.35488 | 33914 ft | 371 kts | 359° |
| 2026-04-23 10:52 | 64.75804 | 25.36119 | 33916 ft | 371 kts | 359° |
| 2026-04-23 10:53 | 64.80936 | 25.36753 | 33912 ft | 372 kts | 359° |
| 2026-04-23 10:53 | 64.86060 | 25.37383 | 33917 ft | 371 kts | 359° |
| 2026-04-23 10:54 | 64.91177 | 25.38015 | 33918 ft | 371 kts | 359° |
| 2026-04-23 10:54 | 64.96270 | 25.38649 | 33917 ft | 370 kts | 359° |
| 2026-04-23 10:55 | 65.01390 | 25.39292 | 33909 ft | 369 kts | 359° |
| 2026-04-23 10:55 | 65.06474 | 25.39928 | 33908 ft | 366 kts | 359° |
| 2026-04-23 10:56 | 65.11522 | 25.40550 | 33902 ft | 368 kts | 359° |
| 2026-04-23 10:56 | 65.16633 | 25.41181 | 33896 ft | 371 kts | 359° |
| 2026-04-23 10:57 | 65.21739 | 25.41830 | 33898 ft | 368 kts | 359° |
| 2026-04-23 10:57 | 65.26850 | 25.42481 | 33893 ft | 372 kts | 359° |
| 2026-04-23 10:58 | 65.31961 | 25.43133 | 33888 ft | 369 kts | 359° |
| 2026-04-23 10:58 | 65.37067 | 25.43792 | 33881 ft | 368 kts | 358° |
| 2026-04-23 10:59 | 65.42160 | 25.44443 | 33881 ft | 368 kts | 359° |
| 2026-04-23 10:59 | 65.45256 | 25.44840 | 33897 ft | 369 kts | 359° |